Latest Weather Observations for Richmond

IDN60901

Issued at 5:01 am EDT Friday 22 February 2019 (issued every 10 minutes, with the page automatically refreshed every 10 minutes)

About weather observations | Map of Sydney area stations | Latest observations for Sydney area | Other Formats
Station Details ID: 067105 Name: RICHMOND RAAF Lat: -33.60 Lon: 150.78 Height: 19.0 m
Data from the previous 72 hours. | See also: Recent months at Richmond
Date/Time
EDT
Temp
°C
App
Temp
°C
Dew
Point
°C
Rel
Hum
%
Delta-T
°C
Wind Press
QNH
hPa
Press
MSL
hPa
Rain since
9am
mm
Dir  Spd
km/h
Gust
km/h
Spd
kts
Gust
kts
22/05:00am 17.9 18.1 17.6 98 0.2 SSW 13 20 7 11 1018.7 1018.6 4.8
22/04:30am 18.1 17.9 17.6 97 0.3 S 15 20 8 11 1018.7 1018.6 4.8
22/04:00am 18.3 18.5 17.7 96 0.4 SSW 13 17 7 9 1018.7 1018.6 4.8
22/03:30am 18.2 19.1 17.6 96 0.4 SSW 9 15 5 8 1018.9 1018.8 4.8
22/03:00am 18.3 18.9 17.7 96 0.4 SSW 11 17 6 9 1019.0 1018.9 4.8
22/02:30am 18.4 18.6 17.6 95 0.5 SSW 13 19 7 10 1019.0 1018.9 4.8
22/02:00am 18.6 18.9 17.8 95 0.5 SSW 13 17 7 9 1019.1 1019.0 4.8
22/01:30am 18.8 19.7 18.3 97 0.3 SSW 11 17 6 9 1019.3 1019.2 4.8
22/01:00am 18.8 20.2 18.6 99 0.1 SW 9 11 5 6 1019.4 1019.3 4.8
22/12:42am 18.8 19.8 18.6 99 0.1 SW 11 15 6 8 1019.5 1019.4 4.8
22/12:30am 18.7 20.0 18.5 99 0.1 SSW 9 13 5 7 1019.5 1019.4 4.8
22/12:21am 18.7 19.6 18.5 99 0.1 SSW 11 17 6 9 1019.6 1019.5 4.6
22/12:05am 18.8 18.6 18.6 99 0.1 SSW 17 22 9 12 1019.6 1019.5 4.0
22/12:01am 18.8 18.6 18.6 99 0.1 SSW 17 22 9 12 1019.5 1019.4 3.8
22/12:00am 18.9 19.2 18.7 99 0.1 SSW 15 22 8 12 1019.5 1019.4 3.4
 
Date/Time
EDT
Temp
°C
App
Temp
°C
Dew
Point
°C
Rel
Hum
%
Delta-T
°C
Wind Press
QNH
hPa
Press
MSL
hPa
Rain since
9am
mm
Dir  Spd
km/h
Gust
km/h
Spd
kts
Gust
kts
21/11:30pm 19.0 20.0 18.7 98 0.2 S 11 19 6 10 1019.6 1019.5 1.6
21/11:15pm 19.0 20.0 18.7 98 0.2 S 11 15 6 8 1019.6 1019.5 1.2
21/11:00pm 19.2 19.8 18.7 97 0.3 S 13 17 7 9 1019.6 1019.5 1.2
21/10:52pm 19.3 19.9 18.6 96 0.4 SSE 13 19 7 10 1019.7 1019.6 1.0
21/10:30pm 20.1 22.3 19.1 94 0.6 S 6 9 3 5 1019.5 1019.4 1.0
21/10:00pm 20.1 22.2 19.4 96 0.4 SW 7 9 4 5 1019.4 1019.3 1.0
21/09:30pm 20.0 23.4 19.3 96 0.4 CALM 0 0 0 0 1019.2 1019.1 1.0
21/09:00pm 19.9 23.1 18.9 94 0.6 CALM 0 0 0 0 1018.7 1018.6 1.0
21/08:30pm 20.1 22.2 19.3 95 0.5 SSE 7 9 4 5 1018.4 1018.3 1.0
21/08:00pm 20.3 21.2 19.3 94 0.6 SSE 13 19 7 10 1017.9 1017.8 1.0
21/07:36pm 20.3 21.9 20.0 98 0.2 SE 11 15 6 8 1017.6 1017.5 1.0
21/07:30pm 20.2 21.4 19.9 98 0.2 SE 13 20 7 11 1017.5 1017.4 1.0
21/07:11pm 20.4 20.0 19.4 94 0.6 SSE 20 30 11 16 1017.2 1017.1 0.4
21/07:00pm 21.3 20.3 18.9 86 1.5 SSE 22 30 12 16 1017.0 1016.9 0.2
21/06:30pm 22.1 21.7 18.9 82 2.0 SE 19 26 10 14 1016.5 1016.4 0.2
21/06:00pm 22.2 21.8 19.4 84 1.8 ESE 20 28 11 15 1016.2 1016.1 0.2
21/05:30pm 23.4 23.0 18.1 72 3.3 ESE 17 24 9 13 1015.8 1015.7 0.0
21/05:00pm 23.6 22.7 17.8 70 3.6 SE 19 22 10 12 1015.7 1015.6 0.0
21/04:30pm 23.4 24.0 18.5 74 3.1 S 13 17 7 9 1015.6 1015.5 0.0
21/04:00pm 22.4 23.4 19.4 83 1.9 SSW 13 17 7 9 1015.6 1015.5 0.0
21/03:30pm 22.4 23.1 19.6 84 1.8 SW 15 19 8 10 1015.7 1015.6 0.0
21/03:00pm 23.3 23.8 18.4 74 3.1 SSE 13 22 7 12 1016.0 1015.9 0.0
21/02:30pm 23.8 23.9 18.4 72 3.4 SE 15 20 8 11 1016.3 1016.2 0.0
21/02:00pm 23.3 22.9 18.8 76 2.8 SE 19 24 10 13 1016.5 1016.4 0.0
21/01:30pm 22.8 21.7 18.6 77 2.6 SSE 22 32 12 17 1016.5 1016.4 0.0
21/01:00pm 23.8 24.4 18.7 73 3.2 SSE 13 20 7 11 1016.5 1016.4 0.0
21/12:30pm 23.9 24.8 19.2 75 3.0 SE 13 19 7 10 1016.5 1016.4 0.0
21/12:00pm 23.3 24.5 19.0 77 2.7 S 11 17 6 9 1016.8 1016.7 0.0
21/11:30am 22.6 23.8 19.0 80 2.3 S 11 17 6 9 1016.8 1016.7 0.0
21/11:00am 22.2 23.2 19.4 84 1.8 SSW 13 19 7 10 1016.8 1016.7 0.0
21/10:30am 21.6 22.3 18.8 84 1.8 SSW 13 19 7 10 1016.6 1016.5 0.0
21/10:00am 21.5 22.2 18.9 85 1.6 S 13 17 7 9 1016.4 1016.3 0.0
21/09:30am 21.6 22.4 19.0 85 1.6 S 13 20 7 11 1016.1 1016.0 0.0
21/09:00am 21.5 22.9 19.6 89 1.2 SSW 11 15 6 8 1015.9 1015.8 3.4
21/08:30am 21.0 23.0 20.0 94 0.6 SSW 9 17 5 9 1015.5 1015.4 3.4
21/08:00am 20.4 22.7 19.9 97 0.3 SW 7 13 4 7 1015.1 1015.0 3.4
21/07:30am 20.1 21.4 19.3 95 0.5 SSW 11 15 6 8 1014.8 1014.7 3.4
21/07:29am 20.1 21.4 19.3 95 0.5 SSW 11 15 6 8 1014.8 1014.7 3.4
21/07:00am 20.6 22.2 19.1 91 0.9 SSE 9 15 5 8 1014.4 1014.3 3.0
21/06:49am 20.6 22.3 19.3 92 0.8 S 9 13 5 7 1014.3 1014.2 3.0
21/06:30am 20.6 22.2 19.1 91 0.9 SSW 9 15 5 8 1014.0 1013.9 3.0
21/06:00am 20.6 21.4 19.1 91 0.9 SW 13 17 7 9 1013.7 1013.6 3.0
21/05:30am 20.7 21.2 19.2 91 0.9 SW 15 20 8 11 1013.5 1013.4 3.0
21/05:00am 20.9 22.1 19.0 89 1.2 SW 11 13 6 7 1013.3 1013.2 3.0
21/04:30am 20.9 22.4 19.0 89 1.2 SW 9 13 5 7 1013.2 1013.1 3.0
21/04:00am 20.9 22.1 19.0 89 1.2 SSW 11 15 6 8 1013.1 1013.0 3.0
21/03:30am 21.0 22.2 19.1 89 1.2 SSW 11 15 6 8 1013.1 1013.0 3.0
21/03:00am 20.9 22.5 19.2 90 1.1 SSW 9 15 5 8 1013.0 1012.9 3.0
21/02:30am 20.9 22.6 19.4 91 1.0 SSW 9 15 5 8 1013.0 1012.9 3.0
21/02:00am 21.0 22.5 19.7 92 0.8 SSW 11 19 6 10 1013.0 1012.9 3.0
21/01:30am 21.1 22.6 19.7 92 0.9 SSW 11 19 6 10 1013.2 1013.1 3.0
21/01:22am 21.0 22.1 19.7 92 0.8 SSW 13 19 7 10 1013.2 1013.1 3.0
21/01:00am 21.1 22.2 19.7 92 0.9 SSW 13 19 7 10 1013.2 1013.1 3.0
21/12:59am 21.1 22.2 19.7 92 0.9 SSW 13 19 7 10 1013.2 1013.1 3.0
21/12:30am 21.0 23.0 20.0 94 0.6 SSW 9 15 5 8 1013.2 1013.1 3.0
21/12:06am 20.9 22.6 20.1 95 0.5 SSW 11 13 6 7 1013.2 1013.1 3.0
21/12:00am 20.8 22.4 20.0 95 0.5 SSW 11 15 6 8 1013.2 1013.1 3.0
 
Date/Time
EDT
Temp
°C
App
Temp
°C
Dew
Point
°C
Rel
Hum
%
Delta-T
°C
Wind Press
QNH
hPa
Press
MSL
hPa
Rain since
9am
mm
Dir  Spd
km/h
Gust
km/h
Spd
kts
Gust
kts
20/11:30pm 20.7 22.7 20.0 96 0.4 SSW 9 13 5 7 1013.2 1013.1 3.0
20/11:00pm 20.8 23.0 20.3 97 0.3 SSW 9 11 5 6 1013.2 1013.1 3.0
20/10:30pm 20.7 22.8 20.2 97 0.3 SSW 9 13 5 7 1013.2 1013.1 3.0
20/10:00pm 20.8 23.4 20.5 98 0.2 SW 7 13 4 7 1013.1 1013.0 3.0
20/09:54pm 20.8 23.4 20.5 98 0.2 WSW 7 9 4 5 1013.1 1013.0 3.0
20/09:30pm 20.8 24.7 20.3 97 0.3 CALM 0 0 0 0 1012.9 1012.8 3.0
20/09:07pm 20.8 23.3 20.3 97 0.3 S 7 13 4 7 1012.4 1012.3 3.0
20/09:00pm 20.7 22.8 20.2 97 0.3 S 9 13 5 7 1012.3 1012.2 3.0
20/08:44pm 20.7 22.7 19.9 95 0.5 S 9 13 5 7 1012.2 1012.1 2.0
20/08:30pm 21.0 22.2 19.8 93 0.8 S 13 19 7 10 1012.0 1011.9 0.8
20/08:00pm 21.7 22.8 19.6 88 1.3 SSE 13 19 7 10 1011.5 1011.4 0.6
20/07:47pm 21.9 22.2 19.5 86 1.5 S 17 20 9 11 1011.3 1011.2 0.6
20/07:30pm 22.5 23.1 19.5 83 1.9 SSE 15 19 8 10 1011.0 1010.9 0.6
20/07:00pm 22.5 22.7 19.3 82 2.0 S 17 24 9 13 1010.6 1010.5 0.6
20/06:30pm 22.6 22.3 19.2 81 2.2 SSE 19 24 10 13 1010.4 1010.3 0.6
20/06:00pm 23.5 23.6 19.2 77 2.7 SSE 17 24 9 13 1010.0 1009.9 0.6
20/05:30pm 23.5 25.2 19.4 78 2.6 SW 9 13 5 7 1009.9 1009.8 0.6
20/05:00pm 24.0 27.2 19.7 77 2.8 S 2 7 1 4 1009.7 1009.6 0.6
20/04:30pm 23.6 26.2 19.3 77 2.7 S 4 9 2 5 1009.8 1009.7 0.6
20/04:00pm 23.6 25.8 19.1 76 2.9 SSW 6 11 3 6 1009.9 1009.8 0.6
20/03:30pm 23.0 24.3 19.2 79 2.4 S 11 17 6 9 1010.2 1010.1 0.6
20/03:00pm 22.6 23.5 19.2 81 2.2 SSW 13 19 7 10 1010.6 1010.5 0.6
20/02:49pm 22.5 23.2 19.7 84 1.8 SSW 15 20 8 11 1010.7 1010.6 0.6
20/02:30pm 21.9 22.6 18.9 83 1.9 SSW 13 20 7 11 1011.0 1010.9 0.6
20/02:00pm 21.7 22.5 19.1 85 1.6 SSW 13 20 7 11 1011.1 1011.0 0.6
20/01:30pm 21.5 22.0 19.2 87 1.5 SW 15 20 8 11 1011.4 1011.3 0.6
20/01:00pm 21.1 21.9 19.0 88 1.3 SW 13 20 7 11 1011.6 1011.5 0.6
20/12:30pm 20.8 21.7 19.3 91 0.9 SSW 13 19 7 10 1011.7 1011.6 0.6
20/12:00pm 20.4 21.9 19.7 96 0.4 SSW 11 17 6 9 1012.1 1012.0 0.6
20/11:35am 19.8 20.8 19.5 98 0.2 SSW 13 19 7 10 1012.4 1012.3 0.6
20/11:30am 19.7 20.3 19.4 98 0.2 SW 15 24 8 13 1012.5 1012.4 0.6
20/11:08am 19.7 20.6 19.2 97 0.3 SSW 13 17 7 9 1012.6 1012.5 0.0
20/11:00am 19.6 20.0 18.9 96 0.4 S 15 20 8 11 1012.5 1012.4 0.0
20/10:30am 19.2 20.3 18.9 98 0.2 SSW 11 17 6 9 1012.6 1012.5 0.0
20/10:01am 19.2 20.3 18.9 98 0.2 SSW 11 17 6 9 1012.5 1012.4 0.0
20/10:00am 19.1 20.2 18.8 98 0.2 SSW 11 17 6 9 1012.5 1012.4 0.0
20/09:30am 18.9 19.9 18.7 99 0.1 SSW 11 17 6 9 1012.5 1012.4 0.0
20/09:28am 18.8 19.4 18.6 99 0.1 SSW 13 17 7 9 1012.5 1012.4 0.0
20/09:23am 18.9 19.5 18.7 99 0.1 SSW 13 17 7 9 1012.5 1012.4 0.0
20/09:00am 18.7 19.6 18.5 99 0.1 SSW 11 15 6 8 1012.5 1012.4 1.2
20/08:30am 18.5 19.4 18.3 99 0.1 SW 11 15 6 8 1012.3 1012.2 1.2
20/08:08am 18.4 19.2 18.2 99 0.1 SW 11 15 6 8 1012.1 1012.0 1.0
20/08:00am 18.3 19.1 18.1 99 0.1 SW 11 15 6 8 1012.1 1012.0 1.0
20/07:38am 18.2 19.3 17.9 98 0.2 SW 9 13 5 7 1012.0 1011.9 1.0
20/07:30am 18.2 19.3 17.9 98 0.2 SW 9 15 5 8 1011.9 1011.8 1.0
20/07:03am 18.3 18.5 17.7 96 0.4 SSW 13 20 7 11 1011.9 1011.8 1.0
20/07:00am 18.4 18.6 17.6 95 0.5 SSW 13 20 7 11 1011.8 1011.7 1.0
20/06:49am 18.6 19.2 17.6 94 0.6 SSW 11 17 6 9 1011.7 1011.6 1.0
20/06:30am 18.7 19.7 17.7 94 0.6 SSW 9 13 5 7 1011.6 1011.5 1.0
20/06:21am 18.7 19.4 17.9 95 0.5 SW 11 13 6 7 1011.6 1011.5 1.0
20/06:00am 18.7 19.4 18.0 96 0.4 SW 11 15 6 8 1011.5 1011.4 1.0
20/05:44am 18.6 19.7 17.9 96 0.4 SW 9 13 5 7 1011.4 1011.3 1.0
20/05:30am 18.6 19.7 17.9 96 0.4 SW 9 13 5 7 1011.4 1011.3 1.0
20/05:00am 18.7 19.8 18.0 96 0.4 SW 9 13 5 7 1011.4 1011.3 1.0
20/04:57am 18.7 19.8 18.0 96 0.4 SW 9 13 5 7 1011.4 1011.3 1.0
20/04:45am 18.8 19.9 18.0 95 0.5 SW 9 13 5 7 1011.3 1011.2 1.0
20/04:30am 18.8 19.9 18.0 95 0.5 SW 9 11 5 6 1011.2 1011.1 1.0
20/04:29am 18.8 19.9 18.0 95 0.5 SW 9 11 5 6 1011.2 1011.1 1.0
20/04:00am 18.7 19.9 18.2 97 0.3 SW 9 13 5 7 1011.4 1011.3 1.0
20/03:30am 18.6 19.1 18.3 98 0.2 SW 13 17 7 9 1011.5 1011.4 1.0
20/03:00am 18.6 19.1 18.3 98 0.2 SW 13 19 7 10 1011.7 1011.6 1.0
20/02:30am 18.6 19.5 18.3 98 0.2 SW 11 15 6 8 1012.0 1011.9 1.0
20/02:00am 18.5 18.5 18.2 98 0.2 SW 15 20 8 11 1012.4 1012.3 1.0
20/01:30am 18.8 20.2 18.6 99 0.1 WSW 9 13 5 7 1012.9 1012.8 1.0
20/01:10am 18.7 19.6 18.5 99 0.1 SW 11 15 6 8 1012.9 1012.8 1.0
20/01:00am 18.7 19.6 18.5 99 0.1 SW 11 13 6 7 1013.1 1013.0 1.0
20/12:43am 18.6 20.2 18.3 98 0.2 SSW 7 9 4 5 1013.4 1013.3 0.6
20/12:30am 18.6 20.2 18.3 98 0.2 SSW 7 11 4 6 1013.5 1013.4 0.6
20/12:00am 18.8 20.1 18.5 98 0.2 SW 9 13 5 7 1013.6 1013.5 0.2
 
Date/Time
EDT
Temp
°C
App
Temp
°C
Dew
Point
°C
Rel
Hum
%
Delta-T
°C
Wind Press
QNH
hPa
Press
MSL
hPa
Rain since
9am
mm
Dir  Spd
km/h
Gust
km/h
Spd
kts
Gust
kts
19/11:40pm 18.9 20.3 18.6 98 0.2 SW 9 11 5 6 1013.6 1013.5 0.2
19/11:30pm 18.9 20.2 18.4 97 0.3 SSW 9 15 5 8 1013.6 1013.5 0.2
19/11:14pm 19.2 20.4 18.2 94 0.6 SSW 9 13 5 7 1013.5 1013.4 0.0
19/11:05pm 19.6 20.8 18.3 92 0.8 SSW 9 15 5 8 1013.4 1013.3 0.0
19/11:00pm 19.9 21.5 18.2 90 1.1 SSW 7 11 4 6 1013.4 1013.3 0.0
19/10:30pm 19.8 21.4 18.3 91 0.9 SSW 7 11 4 6 1013.2 1013.1 0.0
19/10:00pm 20.3 20.7 18.1 87 1.4 S 13 17 7 9 1013.1 1013.0 0.0
19/09:30pm 21.3 21.1 17.7 80 2.2 S 15 19 8 10 1012.7 1012.6 0.0
19/09:00pm 21.6 21.1 17.8 79 2.4 S 17 24 9 13 1012.1 1012.0 0.0
19/08:30pm 23.0 22.8 17.5 71 3.4 S 15 20 8 11 1011.3 1011.2 0.0
19/08:00pm 23.4 22.3 17.4 69 3.7 S 19 26 10 14 1010.8 1010.7 0.0
19/07:30pm 23.8 22.8 17.5 68 3.9 SSE 19 26 10 14 1010.2 1010.1 0.0
19/07:00pm 24.1 22.6 17.6 67 4.1 SSE 22 33 12 18 1009.5 1009.4 0.0
19/06:30pm 24.6 22.7 17.6 65 4.4 SE 24 32 13 17 1008.8 1008.7 0.0
19/06:00pm 25.0 23.0 17.5 63 4.7 SE 24 32 13 17 1008.4 1008.3 0.0
19/05:30pm 25.2 22.4 17.4 62 4.9 SE 28 37 15 20 1007.9 1007.8 0.0
19/05:00pm 25.5 23.7 16.9 59 5.3 SE 22 30 12 16 1007.5 1007.4 0.0
19/04:30pm 26.6 23.7 17.1 56 5.9 SE 28 43 15 23 1006.8 1006.7 0.0
19/04:00pm 27.0 24.3 17.5 56 6.0 SE 28 39 15 21 1006.5 1006.4 0.0
19/03:30pm 27.8 23.0 16.7 50 6.9 SSE 37 44 20 24 1006.0 1005.9 0.0
19/03:00pm 29.6 26.6 17.8 49 7.5 SE 30 44 16 24 1005.6 1005.5 0.0
19/02:30pm 29.5 25.7 17.3 47 7.7 SE 33 44 18 24 1005.3 1005.2 0.0
19/02:00pm 30.3 26.5 18.1 48 7.8 SE 35 44 19 24 1004.7 1004.6 0.0
19/01:30pm 32.6 29.8 19.1 44 8.8 SE 32 41 17 22 1004.4 1004.3 0.0
19/01:00pm 33.9 32.9 18.0 39 10.3 SE 20 37 11 20 1004.3 1004.2 0.0
19/12:30pm 34.3 32.6 15.7 32 11.7 SSE 19 28 10 15 1004.5 1004.4 0.0
19/12:00pm 34.2 34.0 15.6 32 11.7 SSE 11 19 6 10 1004.8 1004.7 0.0
19/11:30am 33.1 33.0 16.0 35 10.7 SSE 11 17 6 9 1005.0 1004.9 0.0
19/11:00am 33.0 32.7 15.5 35 10.9 E 11 17 6 9 1005.1 1005.0 0.0
19/10:30am 31.4 32.0 16.9 41 9.2 ENE 9 15 5 8 1005.3 1005.2 0.0
19/10:00am 29.2 30.9 17.1 48 7.6 ENE 4 9 2 5 1005.5 1005.4 0.0
19/09:30am 27.4 29.5 17.3 54 6.3 NE 2 7 1 4 1005.6 1005.5 0.0
19/09:00am 25.6 27.3 16.2 56 5.8 NNE 2 7 1 4 1005.6 1005.5 0.0
19/08:30am 24.2 26.9 17.7 67 4.1 CALM 0 0 0 0 1005.6 1005.5 0.0
19/08:00am 24.2 26.8 17.4 65 4.2 CALM 0 6 0 3 1005.5 1005.4 0.0
19/07:30am 22.7 24.5 17.4 72 3.3 SSE 4 9 2 5 1005.4 1005.3 0.0
19/07:00am 21.5 23.5 17.9 80 2.2 ENE 4 9 2 5 1005.5 1005.4 0.0
19/06:30am 21.7 23.0 17.1 75 2.8 SW 6 9 3 5 1005.3 1005.2 0.0
19/06:00am 22.6 24.8 16.4 68 3.8 CALM 0 0 0 0 1005.0 1004.9 0.0
19/05:30am 22.9 24.0 15.5 63 4.4 NNW 4 7 2 4 1005.2 1005.1 0.0

Latest Capital City Observations: Canberra | Sydney | Melbourne | Brisbane | Adelaide | Perth | Hobart | Darwin

Other formats

Comma delimited format used in spreadsheet applications
http://www.bom.gov.au/fwo/IDN60901/IDN60901.95753.axf

JavaScript Object Notation format (JSON) in row-major order
http://www.bom.gov.au/fwo/IDN60901/IDN60901.95753.json

Data quality

Most of these data are generated automatically and are frequently updated. Quality checks on data are not normally performed. It is possible for incorrect values to appear. Refer to information at About Latest Weather Observations and please check the disclaimer before using these data.